Time;durP1;ratioP1;P1;durP2;ratioP2;P2;SDS_P1;SDS_P2;PMS_P1;PMS_P2;Temp;Humidity;BMP_temperature;BMP_pressure;BME280_temperature;BME280_humidity;BME280_pressure;Samples;Min_cycle;Max_cycle;Signal;HPM_P1;HPM_P2
2024/03/10 00:02:38;;;;;;;8.40;4.70;;;;;;;-0.33;83.53;95481.71;110635;1274;22098;-71
2024/03/10 00:05:38;;;;;;;6.90;4.20;;;;;;;-0.32;84.08;95484.50;110446;1274;22099;-71
2024/03/10 00:08:39;;;;;;;;;;;;;;;;;;;;;
2024/03/10 00:11:33;;;;;;;14.90;7.40;;;;;;;-0.40;84.75;95477.23;110640;1274;22256;-71
2024/03/10 00:14:36;;;;;;;;;;;;;;;;;;;;;
2024/03/10 00:17:41;;;;;;;8.60;5.10;;;;;;;-0.40;84.54;95470.48;110567;1274;22278;-71
2024/03/10 00:20:40;;;;;;;;;;;;;;;;;;;;;
2024/03/10 00:23:41;;;;;;;;;;;;;;;;;;;;;
2024/03/10 00:26:30;;;;;;;11.10;6.90;;;;;;;-0.30;84.80;95468.80;110555;1274;22189;-71
2024/03/10 00:29:25;;;;;;;10.20;5.30;;;;;;;-0.30;84.59;95472.95;110620;1274;22794;-71
2024/03/10 00:31:57;;;;;;;20.40;9.50;;;;;;;-0.32;85.08;95470.33;110599;1274;22126;-71
2024/03/10 00:35:11;;;;;;;;;;;;;;;;;;;;;
2024/03/10 00:38:10;;;;;;;;;;;;;;;;;;;;;
2024/03/10 00:40:48;;;;;;;10.50;6.30;;;;;;;-0.31;84.91;95457.21;110634;1274;22883;-71
2024/03/10 00:44:00;;;;;;;;;;;;;;;;;;;;;
2024/03/10 00:47:32;;;;;;;;;;;;;;;;;;;;;
2024/03/10 00:50:04;;;;;;;22.30;11.40;;;;;;;-0.07;84.34;95448.36;110621;1274;22082;-71
2024/03/10 00:53:20;;;;;;;13.00;8.00;;;;;;;-0.10;85.16;95446.05;110612;1274;22114;-71
2024/03/10 00:55:53;;;;;;;15.70;8.20;;;;;;;-0.06;85.53;95444.75;110641;1274;22117;-71
2024/03/10 00:58:58;;;;;;;27.00;13.40;;;;;;;-0.01;85.66;95445.53;110589;1274;22076;-71
2024/03/10 01:02:09;;;;;;;26.00;14.50;;;;;;;0.02;85.19;95448.00;110644;1274;22116;-71
2024/03/10 01:07:52;;;;;;;16.10;7.80;;;;;;;0.10;85.63;95433.29;110627;1274;22133;-71
2024/03/10 01:10:54;;;;;;;;;;;;;;;;;;;;;
2024/03/10 01:13:53;;;;;;;;;;;;;;;;;;;;;
2024/03/10 01:16:32;;;;;;;10.00;5.20;;;;;;;0.27;85.71;95431.70;110640;1274;22733;-71
2024/03/10 01:19:33;;;;;;;;;;;;;;;;;;;;;
2024/03/10 01:22:37;;;;;;;;;;;;;;;;;;;;;
2024/03/10 01:25:56;;;;;;;6.00;3.70;;;;;;;0.44;85.56;95431.31;110632;1275;22432;-71
2024/03/10 01:28:32;;;;;;;5.90;3.60;;;;;;;0.45;85.60;95429.77;110649;1274;22120;-71
2024/03/10 01:31:32;;;;;;;9.70;6.40;;;;;;;0.48;86.13;95428.25;110646;1274;22119;-71
2024/03/10 01:37:47;;;;;;;;;;;;;;;;;;;;;
2024/03/10 01:40:21;;;;;;;37.90;16.90;;;;;;;0.59;85.66;95418.77;110629;1274;22071;-71
2024/03/10 01:43:06;;;;;;;30.50;14.70;;;;;;;0.61;85.80;95414.31;110595;1272;22186;-71
2024/03/10 01:49:48;;;;;;;10.90;6.30;;;;;;;0.68;85.69;95412.69;110576;1274;22112;-71
2024/03/10 01:52:19;;;;;;;11.20;6.40;;;;;;;0.71;85.13;95413.26;110640;1274;22344;-71
2024/03/10 01:55:14;;;;;;;14.30;8.50;;;;;;;0.72;85.37;95414.48;110634;1274;22278;-71
2024/03/10 01:58:22;;;;;;;;;;;;;;;0.71;85.58;95417.41;110649;1274;23092;-71
2024/03/10 02:01:15;;;;;;;16.40;8.00;;;;;;;0.73;85.56;95415.01;110598;1274;22081;-71
2024/03/10 02:04:35;;;;;;;15.80;8.00;;;;;;;0.76;85.40;95414.19;110613;1274;22097;-71
2024/03/10 02:07:25;;;;;;;16.50;9.00;;;;;;;0.77;86.07;95415.77;110649;1274;22105;-71
2024/03/10 02:10:28;;;;;;;;;;;;;;;;;;;;;
2024/03/10 02:12:56;;;;;;;64.10;32.60;;;;;;;0.85;85.58;95413.83;110657;1274;22936;-71
2024/03/10 02:16:05;;;;;;;28.50;15.80;;;;;;;0.87;85.41;95413.33;110598;1274;22126;-71
2024/03/10 02:19:07;;;;;;;;;;;;;;;;;;;;;
2024/03/10 02:22:08;;;;;;;;;;;;;;;;;;;;;
2024/03/10 02:25:22;;;;;;;20.30;11.10;;;;;;;0.91;85.39;95412.86;110633;1274;22096;-71
2024/03/10 02:28:20;;;;;;;15.40;9.70;;;;;;;0.95;85.39;95414.85;110658;1274;22114;-71
2024/03/10 02:31:08;;;;;;;;;;;;;;;;;;;;;
2024/03/10 02:49:06;;;;;;;16.80;9.10;;;;;;;1.00;86.23;95409.39;110663;1274;23050;-71
2024/03/10 02:52:26;;;;;;;;;;;;;;;;;;;;;
2024/03/10 02:55:24;;;;;;;;;;;;;;;;;;;;;
2024/03/10 02:58:17;;;;;;;14.20;8.00;;;;;;;1.00;85.95;95408.51;110609;1274;22552;-71
2024/03/10 03:01:16;;;;;;;;;;;;;;;;;;;;;
2024/03/10 03:04:00;;;;;;;14.90;8.50;;;;;;;0.99;85.78;95418.72;110668;1274;22218;-72
2024/03/10 03:06:32;;;;;;;11.20;7.10;;;;;;;0.97;85.55;95424.75;110641;1274;23000;-71
2024/03/10 03:09:04;;;;;;;8.40;5.60;;;;;;;0.94;85.38;95425.89;110652;1274;22959;-71
2024/03/10 03:14:29;;;;;;;9.60;6.50;;;;;;;0.93;85.93;95423.64;110638;1273;22125;-71
2024/03/10 03:17:24;;;;;;;22.70;13.00;;;;;;;0.92;85.89;95420.16;110686;1274;22090;-72
2024/03/10 03:20:26;;;;;;;34.20;16.30;;;;;;;0.87;85.84;95423.03;110663;1274;22119;-71
2024/03/10 03:23:08;;;;;;;32.00;16.00;;;;;;;0.83;85.85;95425.56;110680;1274;22102;-71
2024/03/10 03:25:57;;;;;;;19.90;11.90;;;;;;;0.82;85.76;95428.66;110673;1274;22204;-72
2024/03/10 03:28:56;;;;;;;;;;;;;;;;;;;;;
2024/03/10 03:32:15;;;;;;;;;;;;;;;;;;;;;
2024/03/10 03:34:47;;;;;;;11.60;5.90;;;;;;;0.80;85.75;95420.33;110624;1274;22136;-71
2024/03/10 03:38:03;;;;;;;10.80;6.80;;;;;;;0.79;85.79;95417.52;110632;1274;22092;-71
2024/03/10 03:40:34;;;;;;;7.70;4.90;;;;;;;0.75;85.67;95415.39;110669;1274;22188;-71
2024/03/10 03:43:32;;;;;;;10.20;6.30;;;;;;;0.77;85.64;95412.83;110675;1274;22126;-71
2024/03/10 03:46:04;;;;;;;12.50;6.50;;;;;;;0.75;86.01;95408.30;110666;1270;22258;-72
2024/03/10 03:49:04;;;;;;;9.80;6.50;;;;;;;0.72;86.06;95405.32;110651;1274;22249;-72
2024/03/10 03:52:05;;;;;;;10.90;6.70;;;;;;;0.72;86.24;95404.26;110661;1274;22765;-71
2024/03/10 03:54:39;;;;;;;19.70;9.80;;;;;;;0.73;86.03;95401.49;110645;1274;22759;-71
2024/03/10 03:57:31;;;;;;;15.40;7.60;;;;;;;0.73;85.99;95406.02;110583;1274;22940;-71
2024/03/10 04:00:23;;;;;;;16.90;8.70;;;;;;;0.75;85.91;95409.16;110651;1274;22141;-71
2024/03/10 04:03:11;;;;;;;21.40;11.00;;;;;;;0.75;86.16;95414.52;110697;1274;22116;-71
2024/03/10 04:06:12;;;;;;;;;;;;;;;;;;;;;
2024/03/10 04:09:15;;;;;;;;;;;;;;;;;;;;;
2024/03/10 04:11:59;;;;;;;10.10;5.70;;;;;;;0.80;87.42;95410.11;110642;1274;22092;-71
2024/03/10 04:14:50;;;;;;;14.10;6.60;;;;;;;0.82;87.34;95409.44;110591;1267;22275;-71
2024/03/10 04:18:04;;;;;;;11.70;6.90;;;;;;;0.82;87.01;95406.50;110639;1274;22144;-71
2024/03/10 04:21:08;;;;;;;10.10;6.00;;;;;;;0.83;86.55;95404.61;110628;1274;22092;-71
2024/03/10 04:24:00;;;;;;;15.20;7.50;;;;;;;0.88;86.55;95406.77;110656;1274;22201;-71
2024/03/10 04:26:52;;;;;;;24.00;10.80;;;;;;;0.86;86.57;95401.38;110629;1274;22161;-71
2024/03/10 04:30:06;;;;;;;36.50;16.20;;;;;;;0.84;86.52;95395.27;110652;1274;22127;-71
2024/03/10 04:32:54;;;;;;;10.20;6.30;;;;;;;0.84;86.36;95391.48;110642;1274;22366;-71
2024/03/10 04:35:41;;;;;;;7.50;5.20;;;;;;;0.86;86.26;95387.69;110641;1274;22988;-72
2024/03/10 04:39:00;;;;;;;;;;;;;;;;;;;;;
2024/03/10 04:42:15;;;;;;;26.60;13.30;;;;;;;0.84;87.06;95390.08;110419;1274;22372;-71
2024/03/10 04:45:17;;;;;;;;;;;;;;;;;;;;;
2024/03/10 04:48:24;;;;;;;;;;;;;;;;;;;;;
2024/03/10 04:51:49;;;;;;;10.50;6.70;;;;;;;0.85;86.67;95383.00;110581;1274;22953;-72
2024/03/10 04:58:40;;;;;;;8.70;5.60;;;;;;;0.87;87.31;95390.30;110644;1270;22809;-71
2024/03/10 05:01:38;;;;;;;12.60;8.30;;;;;;;0.84;87.28;95388.52;110529;1274;22259;-71
2024/03/10 05:04:52;;;;;;;8.20;5.60;;;;;;;0.82;87.47;95393.17;110664;1273;22106;-71
2024/03/10 05:07:24;;;;;;;8.30;5.60;;;;;;;0.82;88.07;95386.92;110572;1274;22761;-71
2024/03/10 05:10:47;;;;;;;10.60;6.50;;;;;;;0.81;88.18;95386.58;110645;1274;22187;-72
2024/03/10 05:14:04;;;;;;;13.60;8.40;;;;;;;0.83;87.93;95388.68;110638;1274;22183;-72
2024/03/10 05:16:50;;;;;;;17.80;10.00;;;;;;;0.82;87.91;95387.28;110659;1274;22119;-71
2024/03/10 05:20:15;;;;;;;;;;;;;;;;;;;;;
2024/03/10 05:23:00;;;;;;;10.50;5.90;;;;;;;0.86;87.39;95385.79;110596;1273;22857;-71
2024/03/10 05:25:54;;;;;;;8.60;5.80;;;;;;;0.90;87.32;95382.02;110635;1273;22103;-71
2024/03/10 05:28:43;;;;;;;16.00;9.40;;;;;;;0.93;87.44;95390.04;110682;1274;22103;-72
2024/03/10 05:31:57;;;;;;;30.80;19.30;;;;;;;0.96;87.54;95391.64;110705;1274;22434;-72
2024/03/10 05:35:49;;;;;;;33.80;21.80;;;;;;;0.93;87.42;95386.40;110652;1274;22257;-72
2024/03/10 05:38:24;;;;;;;28.10;17.80;;;;;;;0.97;87.39;95386.30;110603;1273;22116;-71
2024/03/10 05:41:04;;;;;;;50.30;25.10;;;;;;;1.00;87.41;95384.61;110691;1273;22119;-71
2024/03/10 05:44:14;;;;;;;37.20;21.10;;;;;;;1.04;87.28;95385.01;110695;1274;22878;-71
2024/03/10 05:47:30;;;;;;;25.80;17.00;;;;;;;1.12;87.33;95385.30;110611;1274;22187;-71
2024/03/10 05:50:32;;;;;;;30.10;19.90;;;;;;;1.16;87.14;95382.08;110518;1274;22125;-71
2024/03/10 05:53:12;;;;;;;36.20;24.70;;;;;;;1.23;87.19;95383.02;110682;1274;22157;-72
2024/03/10 05:56:03;;;;;;;32.00;22.90;;;;;;;1.32;87.34;95387.48;110670;1273;22094;-71
2024/03/10 05:59:20;;;;;;;48.60;29.50;;;;;;;1.39;86.97;95389.14;110668;1274;23015;-71
2024/03/10 06:01:55;;;;;;;39.00;25.50;;;;;;;1.45;87.01;95386.61;110684;1274;22098;-71
2024/03/10 06:04:24;;;;;;;30.10;19.30;;;;;;;1.52;87.06;95386.71;110640;1273;22086;-71
2024/03/10 06:07:05;;;;;;;34.20;21.50;;;;;;;1.53;86.78;95391.05;110620;1274;22790;-71
2024/03/10 06:09:37;;;;;;;44.80;28.80;;;;;;;1.60;86.63;95394.62;110683;1274;22228;-71
2024/03/10 06:12:08;;;;;;;42.90;26.90;;;;;;;1.65;86.89;95397.27;110704;1274;22740;-72
2024/03/10 06:15:20;;;;;;;40.50;24.40;;;;;;;1.77;86.97;95395.86;110658;1274;22137;-71
2024/03/10 06:29:09;;;;;;;56.40;30.90;;;;;;;2.33;84.70;95387.45;110017;1274;22902;-71
2024/03/10 06:32:10;;;;;;;47.60;29.20;;;;;;;2.48;83.45;95381.67;110701;1274;22243;-71
2024/03/10 06:35:06;;;;;;;50.30;31.00;;;;;;;2.60;83.42;95381.27;110668;1274;22107;-72
2024/03/10 06:37:57;;;;;;;33.80;21.10;;;;;;;2.76;83.39;95378.09;110668;1274;22116;-72
2024/03/10 06:40:28;;;;;;;20.70;13.80;;;;;;;2.90;83.05;95373.69;110689;1273;22130;-72
2024/03/10 06:43:23;;;;;;;;;;;;;;;;;;;;;
2024/03/10 06:45:54;;;;;;;17.70;11.80;;;;;;;3.14;82.85;95376.45;110651;1270;22306;-71
2024/03/10 06:48:43;;;;;;;16.50;11.20;;;;;;;3.20;82.73;95380.68;110648;1274;22983;-72
2024/03/10 06:51:14;;;;;;;21.80;12.70;;;;;;;3.28;82.08;95380.55;110584;1269;22164;-71
2024/03/10 06:53:45;;;;;;;;;;;;;;;3.38;82.15;95386.87;110674;1274;22423;-72
2024/03/10 06:56:17;;;;;;;17.20;9.80;;;;;;;3.47;81.77;95389.34;110680;1274;22932;-72
2024/03/10 06:59:02;;;;;;;21.10;12.00;;;;;;;3.53;80.64;95386.95;110566;1274;22851;-72
2024/03/10 07:01:47;;;;;;;20.00;12.30;;;;;;;3.58;80.00;95384.36;110603;1274;22086;-71
2024/03/10 07:04:19;;;;;;;18.60;12.20;;;;;;;3.61;79.64;95385.08;110614;1274;22134;-71
2024/03/10 07:06:50;;;;;;;19.90;13.00;;;;;;;3.74;80.72;95385.83;110647;1274;22586;-72
2024/03/10 07:10:17;;;;;;;23.70;13.50;;;;;;;3.94;80.11;95385.90;110698;1273;22097;-72
2024/03/10 07:12:48;;;;;;;19.70;13.10;;;;;;;4.02;78.15;95379.31;110618;1273;22108;-71
2024/03/10 07:15:22;;;;;;;21.10;13.50;;;;;;;4.06;78.25;95383.52;110661;1274;22144;-72
2024/03/10 07:17:55;;;;;;;22.20;14.30;;;;;;;4.14;78.76;95381.10;110655;1274;22117;-72
2024/03/10 07:20:32;;;;;;;26.50;14.50;;;;;;;4.24;78.73;95389.65;110591;1274;22609;-72
2024/03/10 07:23:37;;;;;;;28.60;18.30;;;;;;;4.32;78.28;95388.80;110662;1274;22101;-72
2024/03/10 07:26:26;;;;;;;27.20;17.70;;;;;;;4.42;76.47;95394.75;110673;1274;22399;-72
2024/03/10 07:28:56;;;;;;;25.50;15.70;;;;;;;4.49;76.85;95393.88;110654;1274;23118;-72
2024/03/10 07:31:38;;;;;;;19.80;12.10;;;;;;;4.59;76.48;95394.42;110688;1274;22908;-72
2024/03/10 07:34:57;;;;;;;;;;;;;;;;;;;;;
2024/03/10 07:37:52;;;;;;;18.50;11.20;;;;;;;5.04;76.96;95381.19;110656;1274;22231;-72
2024/03/10 07:40:23;;;;;;;18.90;10.70;;;;;;;5.16;74.63;95381.18;110656;1273;22118;-72
2024/03/10 07:43:33;;;;;;;17.70;11.10;;;;;;;5.22;73.94;95373.51;110441;1275;22810;-72
2024/03/10 07:46:22;;;;;;;19.10;11.10;;;;;;;5.27;73.28;95377.16;110577;1274;22139;-72
2024/03/10 07:49:00;;;;;;;15.60;10.60;;;;;;;5.29;72.85;95378.20;110624;1274;22162;-72
2024/03/10 07:51:49;;;;;;;14.10;9.80;;;;;;;5.31;73.13;95376.27;110614;1275;22677;-72
2024/03/10 07:54:18;;;;;;;16.60;10.90;;;;;;;5.31;72.94;95372.79;110578;1274;22139;-72
2024/03/10 07:56:50;;;;;;;17.60;9.80;;;;;;;5.56;74.73;95374.64;109992;1274;790595;-72
2024/03/10 07:59:39;;;;;;;12.90;8.30;;;;;;;5.86;74.20;95379.96;110576;1274;22177;-72
2024/03/10 08:02:27;;;;;;;14.50;8.70;;;;;;;5.99;71.55;95374.19;110593;1274;22168;-72
2024/03/10 08:05:16;;;;;;;13.60;8.00;;;;;;;6.02;71.02;95372.95;110582;1274;23015;-72
2024/03/10 08:07:58;;;;;;;16.50;8.90;;;;;;;6.02;71.48;95369.45;110617;1274;22106;-72
2024/03/10 08:13:21;;;;;;;12.60;7.90;;;;;;;6.06;71.56;95365.41;110594;1274;22118;-72
2024/03/10 08:15:53;;;;;;;13.60;8.70;;;;;;;6.07;71.39;95368.02;110589;1275;22198;-72
2024/03/10 08:18:24;;;;;;;14.50;8.80;;;;;;;6.07;70.54;95368.38;110581;1274;22085;-72
2024/03/10 08:20:55;;;;;;;13.70;9.00;;;;;;;6.08;71.00;95369.23;110413;1274;22607;-72
2024/03/10 08:23:26;;;;;;;14.70;8.60;;;;;;;6.17;71.09;95373.92;110607;1274;22160;-71
2024/03/10 08:26:05;;;;;;;13.10;8.10;;;;;;;6.22;70.81;95372.33;110564;1274;22116;-72
2024/03/10 08:28:37;;;;;;;13.00;8.10;;;;;;;6.24;70.59;95371.09;110592;1274;22116;-72
2024/03/10 08:31:26;;;;;;;15.20;9.10;;;;;;;6.28;70.58;95371.95;110431;1263;22192;-72
2024/03/10 08:33:55;;;;;;;16.60;10.60;;;;;;;6.33;70.70;95379.60;110620;1274;22129;-72
2024/03/10 08:36:33;;;;;;;15.90;10.20;;;;;;;6.36;71.29;95376.44;110468;1274;22111;-72
2024/03/10 08:39:22;;;;;;;17.10;12.00;;;;;;;6.44;71.32;95374.81;110599;1274;22102;-72
2024/03/10 08:42:00;;;;;;;19.30;12.60;;;;;;;6.48;71.54;95374.09;110604;1274;22298;-72
2024/03/10 08:44:29;;;;;;;17.30;9.60;;;;;;;6.58;71.74;95369.31;110638;1274;22277;-73
2024/03/10 08:47:04;;;;;;;17.20;10.50;;;;;;;6.58;70.28;95370.36;110637;1273;22120;-72
2024/03/10 08:49:36;;;;;;;14.10;9.20;;;;;;;6.59;70.54;95365.11;110670;1273;22134;-72
2024/03/10 08:52:36;;;;;;;15.50;9.70;;;;;;;6.57;70.35;95365.48;110629;1274;23004;-72
2024/03/10 08:55:07;;;;;;;12.30;8.80;;;;;;;6.63;71.18;95359.66;110571;1264;22760;-72
2024/03/10 08:57:47;;;;;;;14.50;9.50;;;;;;;6.69;70.71;95359.63;110401;1274;22167;-72
2024/03/10 09:00:22;;;;;;;12.10;8.50;;;;;;;6.70;70.13;95360.66;110612;1274;22264;-72
2024/03/10 09:03:23;;;;;;;;;;;;;;;;;;;;;
2024/03/10 09:06:18;;;;;;;12.70;9.20;;;;;;;6.81;70.26;95363.20;110638;1274;22187;-72
2024/03/10 09:08:57;;;;;;;12.20;8.00;;;;;;;6.88;70.40;95367.16;110625;1274;22316;-72
2024/03/10 09:11:52;;;;;;;14.00;8.90;;;;;;;6.92;69.72;95365.73;110609;1273;22083;-72
2024/03/10 09:14:41;;;;;;;15.60;9.60;;;;;;;6.81;68.94;95365.48;110637;1274;22124;-72
2024/03/10 09:17:10;;;;;;;13.80;8.20;;;;;;;6.77;69.19;95364.28;110639;1273;22896;-72
2024/03/10 09:20:01;;;;;;;10.40;7.60;;;;;;;6.80;69.26;95367.05;110590;1273;22898;-72
2024/03/10 09:22:47;;;;;;;12.80;8.20;;;;;;;6.79;68.79;95367.05;110649;1274;22936;-72
2024/03/10 09:25:42;;;;;;;13.00;8.50;;;;;;;6.78;67.81;95368.30;110634;1273;22880;-72
2024/03/10 09:28:11;;;;;;;13.50;8.70;;;;;;;6.84;68.67;95369.29;110604;1273;22115;-72
2024/03/10 09:30:42;;;;;;;16.80;11.80;;;;;;;6.91;68.42;95367.49;110639;1273;22128;-72
2024/03/10 09:33:49;;;;;;;15.30;10.00;;;;;;;6.96;67.77;95368.33;110624;1273;22261;-72
2024/03/10 09:36:36;;;;;;;13.30;7.60;;;;;;;7.07;68.74;95360.89;110669;1273;22095;-72
2024/03/10 09:39:12;;;;;;;11.30;8.60;;;;;;;7.33;69.34;95358.20;110632;1273;22129;-72
2024/03/10 09:42:03;;;;;;;10.70;7.60;;;;;;;7.51;67.92;95356.95;110623;1274;22112;-72
2024/03/10 09:44:32;;;;;;;13.20;7.90;;;;;;;7.57;66.44;95350.95;110607;1273;22129;-72
2024/03/10 09:47:01;;;;;;;10.60;7.90;;;;;;;7.52;65.80;95352.59;110634;1273;22220;-72
2024/03/10 09:49:50;;;;;;;11.50;7.30;;;;;;;7.51;66.07;95354.33;110602;1273;22110;-72
2024/03/10 09:52:19;;;;;;;12.90;7.20;;;;;;;7.52;66.79;95353.63;110588;1274;22256;-72
2024/03/10 09:54:49;;;;;;;12.40;7.80;;;;;;;7.51;66.22;95348.56;110642;1273;22158;-72
2024/03/10 09:57:21;;;;;;;26.40;15.00;;;;;;;7.46;66.15;95346.17;110627;1273;22154;-72
2024/03/10 09:59:51;;;;;;;41.00;22.10;;;;;;;7.43;66.54;95347.42;110614;1274;22287;-73
2024/03/10 10:03:06;;;;;;;22.30;13.50;;;;;;;7.39;66.40;95350.27;110617;1274;22117;-72
2024/03/10 10:05:48;;;;;;;;;;;;;;;;;;;;;
2024/03/10 10:08:41;;;;;;;14.80;7.80;;;;;;;7.49;66.02;95348.59;110672;1274;22160;-72
2024/03/10 10:11:08;;;;;;;13.60;9.10;;;;;;;7.52;65.79;95347.50;110626;1273;22122;-72
2024/03/10 10:13:37;;;;;;;13.90;9.00;;;;;;;7.50;66.27;95346.65;110630;1273;22304;-72
2024/03/10 10:16:10;;;;;;;15.50;10.30;;;;;;;7.43;65.88;95344.63;110614;1273;22159;-72
2024/03/10 10:18:38;;;;;;;14.70;9.50;;;;;;;7.42;66.35;95345.67;110621;1273;22120;-72
2024/03/10 10:21:27;;;;;;;14.90;9.00;;;;;;;7.42;67.38;95341.84;110651;1273;22958;-72
2024/03/10 10:24:16;;;;;;;11.30;8.20;;;;;;;7.43;67.65;95339.37;110636;1273;22190;-72
2024/03/10 10:26:58;;;;;;;12.00;8.00;;;;;;;7.47;67.45;95336.71;110584;1273;22907;-72
2024/03/10 10:29:47;;;;;;;14.80;10.60;;;;;;;7.51;67.10;95332.65;110593;1273;22126;-72
2024/03/10 10:32:23;;;;;;;13.30;8.50;;;;;;;7.53;67.45;95329.64;110616;1273;23008;-72
2024/03/10 10:34:53;;;;;;;11.20;8.40;;;;;;;7.55;66.49;95330.84;110489;1273;22109;-72
2024/03/10 10:37:25;;;;;;;13.00;9.10;;;;;;;7.56;66.61;95331.70;110631;1273;22147;-72
2024/03/10 10:39:57;;;;;;;12.60;9.30;;;;;;;7.58;66.56;95329.22;110614;1273;22243;-72
2024/03/10 10:42:28;;;;;;;13.50;9.30;;;;;;;7.55;66.25;95332.41;110610;1273;22171;-72
2024/03/10 10:45:04;;;;;;;15.40;9.50;;;;;;;7.54;66.52;95327.01;110638;1266;22120;-72
2024/03/10 10:47:33;;;;;;;12.50;9.00;;;;;;;7.59;66.95;95326.60;110658;1274;22136;-72
2024/03/10 10:50:14;;;;;;;14.00;9.50;;;;;;;7.66;67.27;95325.47;110577;1273;22980;-72
2024/03/10 10:52:42;;;;;;;12.90;9.10;;;;;;;7.71;66.98;95321.55;110649;1273;22278;-72
2024/03/10 10:55:19;;;;;;;19.20;13.40;;;;;;;7.75;67.00;95316.08;110653;1273;22295;-72
2024/03/10 10:57:48;;;;;;;18.30;11.70;;;;;;;7.85;66.94;95310.36;110637;1273;22208;-72
2024/03/10 11:00:40;;;;;;;17.90;11.10;;;;;;;7.93;66.45;95305.70;110616;1273;22211;-72
2024/03/10 11:03:22;;;;;;;19.10;12.60;;;;;;;8.01;66.05;95304.37;110637;1274;22270;-72
2024/03/10 11:06:06;;;;;;;17.50;11.10;;;;;;;8.10;65.28;95302.84;110659;1260;22758;-72
2024/03/10 11:08:36;;;;;;;25.60;14.70;;;;;;;8.30;66.13;95298.19;110640;1273;22219;-72
2024/03/10 11:11:05;;;;;;;15.20;10.30;;;;;;;8.62;65.88;95295.63;110595;1274;22413;-73
2024/03/10 11:13:38;;;;;;;15.80;11.10;;;;;;;8.93;65.78;95289.70;110678;1273;22102;-72
2024/03/10 11:16:10;;;;;;;19.00;11.50;;;;;;;9.14;64.63;95290.55;110642;1274;22231;-72
2024/03/10 11:19:18;;;;;;;16.20;11.10;;;;;;;9.25;64.06;95282.45;110567;1274;22242;-72
2024/03/10 11:21:50;;;;;;;14.50;10.60;;;;;;;9.41;62.58;95281.46;110632;1273;22099;-72
2024/03/10 11:24:30;;;;;;;17.40;11.90;;;;;;;9.49;62.12;95271.47;110569;1273;22118;-72
2024/03/10 11:27:20;;;;;;;17.20;12.00;;;;;;;9.51;61.17;95264.92;110610;1274;22711;-72
2024/03/10 11:29:49;;;;;;;16.10;11.50;;;;;;;9.83;62.35;95253.21;110628;1274;22995;-72
2024/03/10 11:32:31;;;;;;;17.40;12.50;;;;;;;10.33;61.81;95242.28;110642;1274;22164;-73
2024/03/10 11:35:06;;;;;;;18.40;12.80;;;;;;;10.85;61.94;95237.16;110594;1273;22105;-72
2024/03/10 11:37:37;;;;;;;20.10;13.50;;;;;;;11.28;60.19;95234.64;110584;1273;22610;-72
2024/03/10 11:40:07;;;;;;;19.40;12.90;;;;;;;11.40;57.41;95231.13;110608;1273;22097;-72
2024/03/10 11:42:36;;;;;;;19.10;13.60;;;;;;;11.34;56.49;95231.66;110459;1273;22850;-72
2024/03/10 11:45:04;;;;;;;20.10;13.80;;;;;;;11.38;57.50;95227.65;110654;1274;22118;-74
2024/03/10 11:47:33;;;;;;;23.50;16.20;;;;;;;11.45;56.27;95224.14;110598;1273;22110;-72
2024/03/10 11:50:06;;;;;;;17.50;12.60;;;;;;;11.36;56.01;95231.07;110636;1273;22171;-73
2024/03/10 11:52:34;;;;;;;21.80;14.70;;;;;;;11.21;56.53;95232.71;110654;1273;22199;-73
2024/03/10 11:55:10;;;;;;;21.20;15.00;;;;;;;11.00;56.58;95235.71;110472;1273;22068;-72
2024/03/10 11:57:40;;;;;;;19.20;13.90;;;;;;;10.98;56.94;95237.89;110641;1273;22168;-73
2024/03/10 12:00:14;;;;;;;20.00;13.90;;;;;;;10.87;56.15;95233.77;110619;1273;22069;-72
2024/03/10 12:02:44;;;;;;;17.80;13.30;;;;;;;10.89;56.74;95230.19;110579;1273;22193;-72
2024/03/10 12:05:15;;;;;;;23.20;14.20;;;;;;;10.94;56.77;95231.48;110646;1274;22283;-72
2024/03/10 12:07:48;;;;;;;16.50;12.10;;;;;;;11.11;56.79;95226.30;110626;1273;22144;-72
2024/03/10 12:10:19;;;;;;;26.90;14.10;;;;;;;11.12;56.61;95230.84;110621;1273;22218;-73
2024/03/10 12:12:51;;;;;;;18.20;13.00;;;;;;;11.17;57.28;95227.02;110377;1273;22100;-73
2024/03/10 12:15:24;;;;;;;19.90;13.00;;;;;;;11.28;57.42;95228.84;110589;1274;22258;-73
2024/03/10 12:17:53;;;;;;;23.50;16.90;;;;;;;11.41;57.80;95232.86;110623;1273;22249;-72
2024/03/10 12:20:23;;;;;;;16.60;12.10;;;;;;;11.46;56.98;95230.43;110624;1273;22116;-72
2024/03/10 12:22:55;;;;;;;20.80;13.50;;;;;;;11.39;55.78;95228.17;110608;1273;22094;-73
2024/03/10 12:25:23;;;;;;;21.50;13.10;;;;;;;11.27;56.57;95226.21;110595;1273;22115;-73
2024/03/10 12:27:53;;;;;;;21.80;14.80;;;;;;;11.19;55.71;95225.21;110632;1274;22244;-73
2024/03/10 12:30:21;;;;;;;18.50;12.30;;;;;;;11.17;56.24;95220.14;110613;1274;22860;-72
2024/03/10 12:32:53;;;;;;;18.50;13.10;;;;;;;11.17;56.62;95222.61;110604;1273;22602;-73
2024/03/10 12:35:22;;;;;;;19.80;13.50;;;;;;;11.26;56.16;95222.01;110599;1273;22089;-72
2024/03/10 12:37:51;;;;;;;17.60;12.80;;;;;;;11.31;56.19;95218.16;110624;1260;22251;-73
2024/03/10 12:40:21;;;;;;;19.10;12.30;;;;;;;11.36;55.90;95219.80;110589;1273;22078;-72
2024/03/10 12:42:51;;;;;;;19.60;13.60;;;;;;;11.39;55.17;95214.95;110610;1273;22284;-72
2024/03/10 12:45:20;;;;;;;20.00;13.10;;;;;;;11.89;56.95;95207.72;110615;1274;22782;-73
2024/03/10 12:47:53;;;;;;;22.70;15.90;;;;;;;12.40;55.65;95205.46;110603;1274;22908;-73
2024/03/10 12:50:24;;;;;;;17.00;12.80;;;;;;;12.60;54.91;95201.64;110609;1273;22118;-72
2024/03/10 12:52:52;;;;;;;19.00;13.60;;;;;;;12.95;53.21;95203.29;110597;1274;22102;-72
2024/03/10 12:55:21;;;;;;;21.10;14.30;;;;;;;13.11;51.96;95201.37;110627;1272;22183;-73
2024/03/10 12:57:49;;;;;;;20.80;14.00;;;;;;;12.99;52.15;95199.80;110614;1274;22576;-73
2024/03/10 13:02:58;;;;;;;20.30;16.00;;;;;;;12.60;52.12;95202.70;110613;1273;22113;-73
2024/03/10 13:05:27;;;;;;;18.70;13.50;;;;;;;12.42;52.81;95203.83;110606;1274;22115;-72
2024/03/10 13:07:58;;;;;;;18.20;13.10;;;;;;;12.31;53.71;95199.91;110609;1274;22262;-72
2024/03/10 13:10:30;;;;;;;20.40;13.80;;;;;;;12.08;53.18;95196.75;110631;1274;22109;-72
2024/03/10 13:12:59;;;;;;;19.60;13.70;;;;;;;11.98;54.28;95191.98;110608;1273;22268;-72
2024/03/10 13:15:27;;;;;;;24.50;15.50;;;;;;;11.79;54.68;95191.10;110604;1274;22099;-73
2024/03/10 13:17:56;;;;;;;30.70;18.10;;;;;;;11.63;55.27;95189.45;110639;1274;22595;-72
2024/03/10 13:20:25;;;;;;;23.90;15.50;;;;;;;11.57;55.41;95186.61;110627;1273;22113;-73
2024/03/10 13:22:54;;;;;;;26.10;15.40;;;;;;;11.54;55.97;95188.11;110684;1274;22175;-72
2024/03/10 13:25:23;;;;;;;19.60;13.40;;;;;;;11.53;56.21;95187.45;110611;1274;22186;-72
2024/03/10 13:27:51;;;;;;;19.10;13.20;;;;;;;11.53;56.58;95191.52;110611;1274;22742;-73
2024/03/10 13:30:19;;;;;;;19.20;13.50;;;;;;;11.52;56.14;95195.42;110623;1274;22455;-73
2024/03/10 13:32:48;;;;;;;19.40;13.60;;;;;;;11.46;56.10;95191.52;110630;1274;22311;-73
2024/03/10 13:35:19;;;;;;;20.70;13.20;;;;;;;11.40;55.69;95193.80;110614;1274;22137;-73
2024/03/10 13:37:48;;;;;;;19.20;13.30;;;;;;;11.40;55.74;95189.05;110394;1274;22197;-73
2024/03/10 13:40:20;;;;;;;21.10;13.80;;;;;;;11.45;55.54;95188.19;110609;1274;22102;-73
2024/03/10 13:42:49;;;;;;;18.90;13.60;;;;;;;11.62;55.42;95184.52;110578;1273;22147;-73
2024/03/10 13:45:19;;;;;;;19.00;13.10;;;;;;;11.93;55.16;95182.77;110606;1274;22702;-73
2024/03/10 13:48:04;;;;;;;18.40;13.00;;;;;;;12.17;55.59;95179.40;110610;1274;22265;-73
2024/03/10 13:50:35;;;;;;;18.60;12.20;;;;;;;12.30;55.32;95179.48;110630;1273;22100;-72
2024/03/10 13:53:09;;;;;;;17.40;12.60;;;;;;;12.38;55.04;95178.20;110643;1274;22181;-73
2024/03/10 13:55:39;;;;;;;16.60;12.30;;;;;;;12.37;53.89;95178.58;110636;1273;22719;-73
2024/03/10 13:58:12;;;;;;;20.20;13.00;;;;;;;12.34;53.95;95171.98;110613;1273;22131;-72
2024/03/10 14:00:40;;;;;;;17.00;12.00;;;;;;;12.33;54.43;95166.36;110617;1273;22619;-72
2024/03/10 14:03:10;;;;;;;17.60;12.40;;;;;;;12.34;54.17;95166.33;110638;1274;22891;-73
2024/03/10 14:05:38;;;;;;;18.50;12.00;;;;;;;12.45;54.07;95153.78;110652;1273;22092;-73
2024/03/10 14:08:07;;;;;;;17.60;12.60;;;;;;;12.63;53.43;95148.44;110609;1273;22161;-73
2024/03/10 14:10:35;;;;;;;20.20;12.90;;;;;;;12.72;53.18;95150.42;110628;1274;22225;-73
2024/03/10 14:13:04;;;;;;;33.30;21.30;;;;;;;12.82;52.92;95151.52;110619;1273;22141;-73
2024/03/10 14:15:37;;;;;;;24.40;16.10;;;;;;;12.80;52.26;95149.27;110637;1273;22587;-73